createdAt,value
2023-01-07T00:01:47.312Z,4.90
2023-01-07T00:06:49.749Z,5.28
2023-01-07T00:11:51.218Z,5.97
2023-01-07T00:16:52.683Z,5.82
2023-01-07T00:21:54.931Z,6.00
2023-01-07T00:26:56.419Z,5.53
2023-01-07T00:31:57.859Z,5.65
2023-01-07T00:37:19.250Z,5.90
2023-01-07T00:42:39.187Z,6.00
2023-01-07T00:47:40.698Z,5.40
2023-01-07T00:52:42.163Z,5.10
2023-01-07T00:57:43.982Z,5.40
2023-01-07T01:02:46.290Z,5.20
2023-01-07T01:07:47.877Z,4.88
2023-01-07T01:12:49.867Z,5.22
2023-01-07T01:17:52.325Z,4.97
2023-01-07T01:22:53.762Z,5.13
2023-01-07T01:27:55.260Z,5.22
2023-01-07T01:32:56.731Z,5.75
2023-01-07T01:38:00.606Z,6.60
2023-01-07T01:43:02.084Z,6.38
2023-01-07T01:48:07.411Z,6.32
2023-01-07T01:53:16.564Z,6.25
2023-01-07T01:58:21.962Z,5.90
2023-01-07T02:03:26.907Z,5.90
2023-01-07T02:08:28.609Z,5.90
2023-01-07T02:13:40.284Z,6.05
2023-01-07T02:19:04.378Z,5.50
2023-01-07T02:24:05.745Z,5.80
2023-01-07T02:29:19.203Z,5.65
2023-01-07T02:34:55.998Z,5.80
2023-01-07T02:40:16.120Z,5.90
2023-01-07T02:45:55.674Z,5.93
2023-01-07T02:50:57.189Z,6.15
2023-01-07T02:56:14.703Z,6.18
2023-01-07T03:01:38.187Z,6.93
2023-01-07T03:07:07.371Z,6.47
2023-01-07T03:12:30.143Z,6.47
2023-01-07T03:17:38.888Z,6.88
2023-01-07T03:22:43.873Z,6.07
2023-01-07T03:27:47.441Z,5.82
2023-01-07T03:33:03.020Z,5.15
2023-01-07T03:38:05.117Z,5.40
2023-01-07T03:43:13.277Z,6.05
2023-01-07T03:48:14.700Z,6.63
2023-01-07T03:53:16.156Z,6.90
2023-01-07T03:58:17.585Z,7.43
2023-01-07T04:03:19.005Z,6.00
2023-01-07T04:08:20.423Z,7.03
2023-01-07T04:13:21.981Z,5.72
2023-01-07T04:18:23.461Z,5.20
2023-01-07T04:23:24.895Z,4.97
2023-01-07T04:28:27.087Z,5.38
2023-01-07T04:33:28.629Z,5.38
2023-01-07T04:38:30.154Z,5.65
2023-01-07T04:43:31.811Z,6.60
2023-01-07T04:48:33.325Z,6.28
2023-01-07T04:53:34.782Z,5.55
2023-01-07T04:58:36.199Z,6.78
2023-01-07T05:03:37.965Z,6.43
2023-01-07T05:08:39.404Z,6.68
2023-01-07T05:13:40.980Z,5.80
2023-01-07T05:18:42.958Z,6.10
2023-01-07T05:23:44.473Z,6.72
2023-01-07T05:28:45.925Z,6.72
2023-01-07T05:33:47.366Z,6.93
2023-01-07T05:38:48.798Z,8.07
2023-01-07T05:43:50.271Z,8.98
2023-01-07T05:48:54.125Z,9.00
2023-01-07T05:53:55.561Z,7.43
2023-01-07T05:58:56.966Z,7.20
2023-01-07T06:03:58.392Z,7.38
2023-01-07T06:08:59.829Z,7.25
2023-01-07T06:14:01.255Z,8.55
2023-01-07T06:19:02.766Z,10.50
2023-01-07T06:24:04.543Z,9.27
2023-01-07T06:29:05.998Z,11.07
2023-01-07T06:34:07.465Z,9.65
2023-01-07T06:39:08.985Z,10.05
2023-01-07T06:44:10.478Z,11.45
2023-01-07T06:49:11.946Z,8.77
2023-01-07T06:54:14.096Z,8.38
2023-01-07T06:59:15.496Z,12.00
2023-01-07T07:04:16.958Z,12.63
2023-01-07T07:09:18.389Z,9.30
2023-01-07T07:14:19.792Z,12.57
2023-01-07T07:19:21.219Z,10.15
2023-01-07T07:24:22.692Z,9.25
2023-01-07T07:29:24.166Z,10.13
2023-01-07T07:34:25.746Z,9.68
2023-01-07T07:39:27.613Z,9.38
2023-01-07T07:44:29.061Z,9.38
2023-01-07T07:49:30.634Z,9.40
2023-01-07T07:54:32.202Z,8.77
2023-01-07T07:59:33.640Z,9.50
2023-01-07T08:04:35.242Z,15.00
2023-01-07T08:09:36.763Z,10.50
2023-01-07T08:14:38.167Z,11.90
2023-01-07T08:19:39.590Z,9.43
2023-01-07T08:24:41.027Z,7.90
2023-01-07T08:29:42.476Z,9.77
2023-01-07T08:34:43.890Z,9.10
2023-01-07T08:39:45.326Z,9.32
2023-01-07T08:44:46.746Z,9.00
2023-01-07T08:49:48.387Z,8.30
2023-01-07T08:54:50.607Z,8.18
2023-01-07T08:59:52.071Z,8.45
2023-01-07T09:04:53.514Z,8.13
2023-01-07T09:09:55.086Z,10.00
2023-01-07T09:14:56.653Z,9.55
2023-01-07T09:19:58.796Z,8.73
2023-01-07T09:25:00.370Z,9.63
2023-01-07T09:30:01.865Z,9.50
2023-01-07T09:35:05.194Z,10.60
2023-01-07T09:40:08.984Z,10.68
2023-01-07T09:45:30.910Z,10.52
2023-01-07T09:50:48.246Z,8.80
2023-01-07T09:56:10.982Z,10.70
2023-01-07T10:01:31.867Z,8.57
2023-01-07T10:06:59.318Z,10.98
2023-01-07T10:12:38.426Z,9.60
2023-01-07T10:17:51.758Z,10.13
2023-01-07T10:23:11.699Z,9.93
2023-01-07T10:28:40.781Z,8.40
2023-01-07T10:33:43.847Z,9.52
2023-01-07T10:38:54.163Z,10.45
2023-01-07T10:44:36.637Z,12.52
2023-01-07T10:50:19.032Z,11.65
2023-01-07T10:55:35.977Z,9.93
2023-01-07T11:00:39.253Z,9.93
2023-01-07T11:05:41.257Z,9.75
2023-01-07T11:10:42.841Z,9.80
2023-01-07T11:15:52.262Z,10.10
2023-01-07T11:20:58.393Z,10.63
2023-01-07T11:26:12.862Z,8.70
2023-01-07T11:31:14.315Z,7.93
2023-01-07T11:36:16.416Z,7.05
2023-01-07T11:41:26.130Z,6.40
2023-01-07T11:46:31.541Z,7.57
2023-01-07T11:51:40.479Z,8.20
2023-01-07T11:56:41.951Z,8.10
2023-01-07T12:01:48.202Z,7.75
2023-01-07T12:06:52.536Z,7.97
2023-01-07T12:11:57.620Z,11.05
2023-01-07T12:17:21.779Z,7.45
2023-01-07T12:22:39.101Z,6.88
2023-01-07T12:27:49.840Z,6.38
2023-01-07T12:32:57.410Z,6.25
2023-01-07T12:38:06.185Z,6.40
2023-01-07T12:43:32.585Z,7.22
2023-01-07T12:49:07.918Z,6.63
2023-01-07T12:54:50.425Z,6.70
2023-01-07T13:00:23.621Z,7.57
2023-01-07T13:05:32.177Z,6.50
2023-01-07T13:10:41.161Z,7.40
2023-01-07T13:15:42.691Z,7.57
2023-01-07T13:20:44.916Z,7.82
2023-01-07T13:26:17.780Z,7.28
2023-01-07T13:31:21.945Z,7.22
2023-01-07T13:36:38.817Z,8.10
2023-01-07T13:42:22.424Z,6.45
2023-01-07T13:47:28.321Z,5.38
2023-01-07T13:52:34.147Z,6.95
2023-01-07T13:57:35.536Z,5.35
2023-01-07T14:02:57.920Z,5.03
2023-01-07T14:08:02.374Z,5.22
2023-01-07T14:13:17.480Z,5.82
2023-01-07T14:18:36.816Z,6.20
2023-01-07T14:23:51.395Z,6.10
2023-01-07T14:28:55.834Z,6.53
2023-01-07T14:34:04.816Z,7.10
2023-01-07T14:39:43.504Z,10.00
2023-01-07T14:44:49.381Z,12.18
2023-01-07T14:49:56.972Z,10.90
2023-01-07T14:55:13.170Z,9.60
2023-01-07T15:00:41.014Z,8.88
2023-01-07T15:05:51.525Z,8.60
2023-01-07T15:11:13.875Z,9.88
2023-01-07T15:16:17.144Z,9.73
2023-01-07T15:21:25.817Z,10.60
2023-01-07T15:26:50.309Z,10.37
2023-01-07T15:32:03.533Z,10.43
2023-01-07T15:37:07.444Z,11.50
2023-01-07T15:42:18.536Z,11.32
2023-01-07T15:47:39.174Z,12.50
2023-01-07T15:52:40.599Z,12.38
2023-01-07T15:57:44.011Z,11.32
2023-01-07T16:02:46.271Z,13.15
2023-01-07T16:07:51.854Z,13.38
2023-01-07T16:13:01.778Z,16.10
2023-01-07T16:18:25.169Z,16.40
2023-01-07T16:23:32.124Z,17.05
2023-01-07T16:28:37.886Z,19.48
2023-01-07T16:33:41.217Z,18.73
2023-01-07T16:38:45.439Z,21.38
2023-01-07T16:43:47.303Z,20.15
2023-01-07T16:49:08.663Z,19.35
2023-01-07T16:54:25.304Z,18.95
2023-01-07T16:59:32.919Z,20.88
2023-01-07T17:04:34.366Z,26.70
2023-01-07T17:09:38.054Z,24.92
2023-01-07T17:14:48.351Z,25.85
2023-01-07T17:19:59.884Z,72.40
2023-01-07T17:25:25.327Z,36.13
2023-01-07T17:30:35.480Z,33.97
2023-01-07T17:35:44.503Z,36.08
2023-01-07T17:40:47.022Z,35.28
2023-01-07T17:45:48.476Z,35.30
2023-01-07T17:50:50.043Z,35.97
2023-01-07T17:55:51.703Z,33.47
2023-01-07T18:00:53.965Z,44.60
2023-01-07T18:05:55.544Z,33.47
2023-01-07T18:11:15.935Z,33.70
2023-01-07T18:16:17.433Z,30.33
2023-01-07T18:21:18.870Z,31.75
2023-01-07T18:26:20.316Z,31.63
2023-01-07T18:31:21.862Z,31.58
2023-01-07T18:36:23.527Z,31.33
2023-01-07T18:41:24.943Z,32.50
2023-01-07T18:46:26.436Z,29.23
2023-01-07T18:51:27.872Z,31.63
2023-01-07T18:56:29.283Z,29.98
2023-01-07T19:01:30.880Z,25.95
2023-01-07T19:06:32.679Z,27.88
2023-01-07T19:11:34.195Z,28.35
2023-01-07T19:16:38.296Z,31.35
2023-01-07T19:21:40.654Z,29.65
2023-01-07T19:26:46.826Z,30.58
2023-01-07T19:31:48.436Z,31.08
2023-01-07T19:36:49.946Z,31.08
2023-01-07T19:41:51.752Z,29.42
2023-01-07T19:46:53.183Z,30.13
2023-01-07T19:51:54.624Z,26.75
2023-01-07T19:56:56.040Z,30.73
2023-01-07T20:01:57.583Z,34.35
2023-01-07T20:06:59.324Z,32.55
2023-01-07T20:12:00.801Z,31.98
2023-01-07T20:17:02.300Z,31.23
2023-01-07T20:22:03.798Z,33.40
2023-01-07T20:27:05.230Z,30.13
2023-01-07T20:32:08.216Z,29.02
2023-01-07T20:37:09.754Z,29.83
2023-01-07T20:42:11.174Z,28.30
2023-01-07T20:47:13.024Z,32.08
2023-01-07T20:52:14.435Z,30.30
2023-01-07T20:57:15.929Z,29.98
2023-01-07T21:02:17.698Z,31.70
2023-01-07T21:07:19.173Z,32.35
2023-01-07T21:12:20.810Z,33.65
2023-01-07T21:17:22.226Z,32.67
2023-01-07T21:22:23.635Z,33.08
2023-01-07T21:27:25.051Z,34.22
2023-01-07T21:32:26.464Z,33.55
2023-01-07T21:37:29.260Z,33.55
2023-01-07T21:42:30.897Z,33.53
2023-01-07T21:47:32.498Z,33.67
2023-01-07T21:52:35.251Z,32.95
2023-01-07T21:57:37.581Z,32.20
2023-01-07T22:02:39.328Z,31.80
2023-01-07T22:07:40.804Z,31.35
2023-01-07T22:12:42.225Z,31.05
2023-01-07T22:17:43.657Z,28.27
2023-01-07T22:22:45.065Z,29.17
2023-01-07T22:27:46.492Z,28.35
2023-01-07T22:32:47.908Z,29.13
2023-01-07T22:37:49.874Z,28.17
2023-01-07T22:42:56.954Z,29.27
2023-01-07T22:47:58.653Z,29.90
2023-01-07T22:53:00.117Z,28.17
2023-01-07T22:58:02.764Z,30.05
2023-01-07T23:03:04.441Z,31.30
2023-01-07T23:08:06.585Z,31.30
2023-01-07T23:13:09.934Z,29.92
2023-01-07T23:18:12.158Z,28.75
2023-01-07T23:23:13.667Z,26.13
2023-01-07T23:28:16.370Z,25.17
2023-01-07T23:33:17.789Z,25.58
2023-01-07T23:38:19.208Z,28.30
2023-01-07T23:43:20.613Z,26.30
2023-01-07T23:48:22.020Z,29.13
2023-01-07T23:53:23.492Z,27.63
2023-01-07T23:58:25.586Z,27.60
